X  Kiinni Metar Aviation säätiedot        EBOS Ostend-Bruges International Airport
Lämpötila
18°C Lämpötila
13°C Kastepiste
73% Kosteus



Tuuli
31 KM/T
20 MPH
9 M/S
17 KTS



260°
L
Nykyiset olosuhteet

Mostly Sunny Enimmäkseen aurinkoista
Paine 1018 (hPa) - 30.06 (inHg)
Näkyvyys 30 (maili) - 48 (km)
Lentokenttä
Lentokentän koodi EBOS

Sijainti: Ostend-Bruges International Airport
Etäisyys: 60 (km)

Metar:
METAR EBOS 161250Z 26017KT 9999 FEW028 18/13 Q1018 NOSIG

Aika: 16-05-2022 14:50 CEST